Stations météo

Publicité
Chamonix, France (7469): Température de l'air & dewpoint: 17.10.2018 02:00:00 - 23.10.2018 02:00:00 (CEST)Chamonix, France (7469): Vitesse du vent & gusts: 17.10.2018 02:00:00 - 23.10.2018 02:00:00 (CEST)Chamonix, France (7469): Direction du vent: 17.10.2018 02:00:00 - 23.10.2018 02:00:00 (CEST)Chamonix, France (7469): Quantités de précipitations: 17.10.2018 02:00:00 - 23.10.2018 02:00:00 (CEST)
Date & Time tt [°C] td [°C] ff [km/h] ff [knt] fx [km/h] fx [knt] dd rr [mm]
23.10.2018 02:00:00 -0,2 -0,5 2 1 8 4 E -
23.10.2018 01:00:00 0,1 -0,3 2 1 5 3 ENE 0,0
23.10.2018 00:00:00 0,6 0,2 0 0 9 5 N 0,0
22.10.2018 23:00:00 1,0 0,6 2 1 9 5 SSW 0,0
22.10.2018 22:00:00 1,5 0,9 0 0 8 4 N 0,0
22.10.2018 21:00:00 2,4 1,7 0 0 8 4 N 0,0
22.10.2018 20:00:00 3,3 2,4 4 2 8 4 N -
22.10.2018 19:00:00 5,0 3,2 2 1 8 4 N 0,0
22.10.2018 18:00:00 8,9 4,3 2 1 13 7 SW 0,0
22.10.2018 17:00:00 11,2 4,9 5 3 13 7 WSW 0,0
22.10.2018 16:00:00 12,2 5,6 4 2 11 6 SSW 0,0
22.10.2018 15:00:00 11,1 5,0 4 2 9 5 SSW 0,0
22.10.2018 14:00:00 7,8 4,9 2 1 8 4 ESE -
22.10.2018 13:00:00 5,7 5,3 0 0 9 5 N 0,0
22.10.2018 12:00:00 4,6 4,5 4 2 8 4 SSE 0,0
22.10.2018 11:00:00 3,3 3,2 2 1 5 3 E 0,0
22.10.2018 10:00:00 3,2 3,1 2 1 5 3 WNW 0,0
22.10.2018 09:00:00 2,5 2,4 0 0 2 1 N 0,0
22.10.2018 08:00:00 1,1 1,0 0 0 4 2 N -
22.10.2018 07:00:00 -0,7 -1,0 0 0 4 2 N 0,0
22.10.2018 06:00:00 -0,9 -1,2 0 0 4 2 N 0,0
22.10.2018 05:00:00 -0,4 -0,7 0 0 4 2 N 0,0
22.10.2018 04:00:00 -0,1 -0,4 0 0 4 2 N 0,0
22.10.2018 03:00:00 0,5 0,1 0 0 5 3 N 0,0
22.10.2018 02:00:00 1,1 0,7 2 1 5 3 NE -
22.10.2018 01:00:00 1,5 1,1 2 1 5 3 N 0,0
22.10.2018 00:00:00 2,2 1,8 0 0 8 4 N 0,0
21.10.2018 23:00:00 3,0 2,4 0 0 8 4 N 0,0
21.10.2018 22:00:00 3,8 3,2 0 0 5 3 N 0,0
21.10.2018 21:00:00 4,8 4,1 0 0 8 4 N 0,0
21.10.2018 20:00:00 6,2 5,2 2 1 5 3 E -
21.10.2018 19:00:00 8,1 5,9 0 0 5 3 N 0,0
21.10.2018 18:00:00 12,3 6,6 0 0 11 6 N 0,0
21.10.2018 17:00:00 15,3 7,1 4 2 13 7 SSW 0,0
21.10.2018 16:00:00 16,6 7,2 5 3 15 8 WSW 0,0
21.10.2018 15:00:00 17,2 6,4 4 2 13 7 SW 0,0
21.10.2018 14:00:00 16,1 5,7 4 2 9 5 S -
21.10.2018 13:00:00 13,7 6,1 4 2 9 5 S 0,0
21.10.2018 12:00:00 7,0 7,0 0 0 4 2 N 0,0
21.10.2018 11:00:00 1,7 1,6 2 1 5 3 E 0,0
21.10.2018 10:00:00 1,0 0,9 0 0 5 3 N 0,0
21.10.2018 09:00:00 0,2 -0,1 0 0 5 3 N 0,0
21.10.2018 08:00:00 0,1 -0,2 0 0 4 2 N -
21.10.2018 07:00:00 0,4 0,1 0 0 4 2 N 0,0
21.10.2018 06:00:00 0,6 0,3 0 0 4 2 N 0,0
21.10.2018 05:00:00 1,1 0,8 0 0 4 2 N 0,0
21.10.2018 04:00:00 1,6 1,3 0 0 4 2 N 0,0
21.10.2018 03:00:00 2,1 1,8 2 1 4 2 NNW 0,0
21.10.2018 02:00:00 2,6 2,2 0 0 8 4 N -
21.10.2018 01:00:00 3,1 2,7 0 0 8 4 N 0,0
21.10.2018 00:00:00 3,7 3,3 0 0 5 3 N 0,0
20.10.2018 23:00:00 4,3 3,7 0 0 5 3 N 0,0
20.10.2018 22:00:00 5,1 4,5 0 0 8 4 N 0,0
20.10.2018 21:00:00 6,1 5,2 0 0 4 2 N 0,0
20.10.2018 20:00:00 7,5 6,3 0 0 5 3 N -
20.10.2018 19:00:00 9,9 7,3 0 0 13 7 N 0,0
20.10.2018 18:00:00 13,6 7,8 2 1 11 6 SW 0,0
20.10.2018 17:00:00 16,8 8,5 4 2 13 7 SSW 0,0
20.10.2018 16:00:00 18,6 8,8 4 2 16 9 SSW 0,0
20.10.2018 15:00:00 18,8 7,9 4 2 15 8 SW 0,0
20.10.2018 14:00:00 19,6 7,3 4 2 11 6 S -
20.10.2018 13:00:00 15,7 6,7 2 1 11 6 S 0,0
20.10.2018 12:00:00 8,0 7,9 0 0 8 4 N 0,0
20.10.2018 11:00:00 2,8 2,7 0 0 5 3 N 0,0
20.10.2018 10:00:00 2,1 2,0 0 0 5 3 N 0,0
20.10.2018 09:00:00 1,8 1,7 0 0 5 3 N 0,0
20.10.2018 08:00:00 1,5 1,2 0 0 9 5 N -
20.10.2018 07:00:00 1,8 1,5 0 0 4 2 N 0,0
20.10.2018 06:00:00 2,0 1,7 0 0 5 3 N 0,0
20.10.2018 05:00:00 2,4 2,1 2 1 8 4 NNW 0,0
20.10.2018 04:00:00 2,7 2,4 0 0 4 2 N 0,0
20.10.2018 03:00:00 3,2 2,8 2 1 8 4 E 0,0
20.10.2018 02:00:00 3,8 3,4 0 0 5 3 N -
20.10.2018 01:00:00 4,2 3,8 0 0 4 2 N 0,0
20.10.2018 00:00:00 4,9 4,3 0 0 5 3 N 0,0
19.10.2018 23:00:00 5,6 5,0 0 0 4 2 N 0,0
19.10.2018 22:00:00 6,4 5,7 0 0 4 2 N 0,0
19.10.2018 21:00:00 7,2 6,1 0 0 4 2 N 0,0
19.10.2018 20:00:00 8,5 7,0 0 0 4 2 N -
19.10.2018 19:00:00 10,4 7,6 0 0 2 1 N 0,0
19.10.2018 18:00:00 15,2 8,7 0 0 9 5 N 0,0
19.10.2018 17:00:00 17,9 7,3 2 1 13 7 SSW 0,0
19.10.2018 16:00:00 18,6 7,7 4 2 15 8 SW 0,0
19.10.2018 15:00:00 18,6 6,7 4 2 13 7 SSW 0,0
19.10.2018 14:00:00 18,2 7,6 5 3 11 6 SW -
19.10.2018 13:00:00 17,5 7,8 2 1 5 3 S 0,0
19.10.2018 12:00:00 10,4 10,2 0 0 5 3 N 0,0
19.10.2018 11:00:00 5,8 5,7 0 0 0 0 N 0,0
19.10.2018 10:00:00 4,1 4,0 0 0 5 3 N 0,0
19.10.2018 09:00:00 2,8 2,7 0 0 4 2 N 0,0
19.10.2018 08:00:00 2,3 2,0 0 0 4 2 N -
19.10.2018 07:00:00 2,1 1,8 0 0 5 3 N 0,0
19.10.2018 06:00:00 2,3 2,0 0 0 5 3 N 0,0
19.10.2018 05:00:00 2,4 2,1 0 0 5 3 N 0,0
19.10.2018 04:00:00 2,8 2,4 0 0 4 2 N 0,0
19.10.2018 03:00:00 3,2 2,8 2 1 4 2 NE 0,0
19.10.2018 02:00:00 3,6 3,2 0 0 5 3 N -
19.10.2018 01:00:00 4,1 3,5 0 0 4 2 N 0,0
19.10.2018 00:00:00 4,8 4,2 0 0 4 2 N 0,0
18.10.2018 23:00:00 5,5 4,8 0 0 4 2 N 0,0
18.10.2018 22:00:00 6,3 5,4 0 0 4 2 N 0,0
18.10.2018 21:00:00 7,4 6,2 0 0 4 2 N 0,0
18.10.2018 20:00:00 8,8 6,8 0 0 5 3 N -
18.10.2018 19:00:00 11,2 7,5 0 0 9 5 N 0,0
18.10.2018 18:00:00 15,9 7,1 4 2 9 5 W 0,0
18.10.2018 17:00:00 19,4 6,8 2 1 13 7 SSW 0,0
18.10.2018 16:00:00 19,4 7,2 4 2 18 10 SSW 0,0
18.10.2018 15:00:00 19,0 6,5 8 4 16 9 WSW 0,0
18.10.2018 14:00:00 18,8 5,6 5 3 15 8 SW -
18.10.2018 13:00:00 19,3 6,1 4 2 11 6 S 0,0
18.10.2018 12:00:00 11,2 8,8 2 1 9 5 S 0,0
18.10.2018 11:00:00 4,3 4,0 0 0 4 2 N 0,0
18.10.2018 10:00:00 3,8 3,5 0 0 4 2 N 0,0
18.10.2018 09:00:00 3,4 3,1 0 0 4 2 N 0,0
18.10.2018 08:00:00 3,1 2,7 0 0 4 2 N -
18.10.2018 07:00:00 3,5 3,1 0 0 5 3 N 0,0
18.10.2018 06:00:00 3,9 3,5 0 0 5 3 N 0,0
18.10.2018 05:00:00 4,5 3,9 0 0 5 3 N 0,0
18.10.2018 04:00:00 4,7 4,1 0 0 4 2 N 0,0
18.10.2018 03:00:00 5,2 4,5 0 0 5 3 N 0,0
18.10.2018 02:00:00 5,7 4,8 0 0 5 3 N -
18.10.2018 01:00:00 5,9 5,2 0 0 8 4 N 0,0
18.10.2018 00:00:00 5,4 4,7 0 0 8 4 N 0,0
17.10.2018 23:00:00 5,8 4,9 2 1 8 4 ENE 0,0
17.10.2018 22:00:00 6,5 5,1 0 0 4 2 N 0,0
17.10.2018 21:00:00 7,6 5,7 0 0 4 2 N 0,0
17.10.2018 20:00:00 9,1 6,4 0 0 4 2 N -
17.10.2018 19:00:00 11,6 6,9 0 0 5 3 N 0,0
17.10.2018 18:00:00 16,5 6,9 2 1 11 6 W 0,0
17.10.2018 17:00:00 19,6 6,0 4 2 13 7 SW 0,0
17.10.2018 16:00:00 20,2 5,4 5 3 18 10 WSW 0,0
17.10.2018 15:00:00 20,2 5,4 8 4 15 8 SW 0,0
17.10.2018 14:00:00 20,9 4,4 4 2 11 6 S -
17.10.2018 13:00:00 19,9 5,5 2 1 9 5 S 0,0
17.10.2018 12:00:00 12,0 7,1 4 2 9 5 S 0,0
17.10.2018 11:00:00 4,0 3,7 2 1 5 3 NNE 0,0
17.10.2018 10:00:00 3,6 3,3 0 0 4 2 N 0,0
17.10.2018 09:00:00 3,1 2,8 2 1 5 3 ESE 0,0
17.10.2018 08:00:00 3,0 2,6 0 0 4 2 N -
17.10.2018 07:00:00 3,5 3,1 0 0 5 3 N 0,0
17.10.2018 06:00:00 3,0 2,6 0 0 4 2 N 0,0
17.10.2018 05:00:00 3,1 2,5 0 0 4 2 N 0,0
17.10.2018 04:00:00 3,4 2,7 0 0 4 2 N 0,0
17.10.2018 03:00:00 3,8 2,9 0 0 5 3 N 0,0
17.10.2018 02:00:00 4,1 3,1 0 0 4 2 N -

tt = Température de l'air
td = dewpoint
ff = Vitesse du vent
fx = gusts
dd = Direction du vent
rr = Quantités de précipitations

stations d'obs. à proximité